Terminal Aerodrome Forecast
Issued by NWS

Home | Current Version | Previous Version | Text Only | Print | Product List | Glossary On
Versions: 1 2 3 4 5 6 7 8 9 10 11 12 13
000
FTUS46 KHNX 192331 RRA
TAFFAT
TAF
KFAT 192331Z 2000/2024 16010KT P6SM OVC080
     FM200200 14012KT P6SM -RA OVC050
     FM201300 11015G21KT P6SM -SHRA OVC040=

USA.gov is the U.S. government's official web portal to all federal, state and local government web resources and services.